Time;durP1;ratioP1;P1;durP2;ratioP2;P2;SDS_P1;SDS_P2;PMS_P1;PMS_P2;Temp;Humidity;BMP_temperature;BMP_pressure;BME280_temperature;BME280_humidity;BME280_pressure;Samples;Min_cycle;Max_cycle;Signal;HPM_P1;HPM_P2
2023/07/20 00:00:27;;;;;;;;;;;;;;;16.97;84.07;101310.69;5046075;28;1012;-76
2023/07/20 00:02:52;;;;;;;;;;;;;;;16.94;84.15;101313.63;5049103;28;1131;-76
2023/07/20 00:05:24;;;;;;;;;;;;;;;16.93;84.64;101311.97;5046598;28;1326;-78
2023/07/20 00:07:51;;;;;;;;;;;;;;;16.94;84.71;101308.38;5030630;28;1456;-78
2023/07/20 00:10:17;;;;;;;;;;;;;;;16.93;84.89;101311.16;5047786;28;1898;-76
2023/07/20 00:12:46;;;;;;;;;;;;;;;16.92;84.53;101318.19;5044915;28;1144;-77
2023/07/20 00:15:12;;;;;;;;;;;;;;;16.92;84.55;101325.25;5046055;28;955;-78
2023/07/20 00:17:39;;;;;;;;;;;;;;;16.92;85.25;101341.78;5027053;28;1222;-80
2023/07/20 00:20:05;;;;;;;;;;;;;;;16.90;85.46;101333.22;5044742;28;1227;-80
2023/07/20 00:22:30;;;;;;;;;;;;;;;16.86;85.77;101333.69;5028387;28;1190;-80
2023/07/20 00:24:56;;;;;;;;;;;;;;;16.86;85.94;101338.94;5032143;28;1415;-80
2023/07/20 00:27:21;;;;;;;;;;;;;;;16.84;86.42;101336.47;5042466;28;1389;-80
2023/07/20 00:29:46;;;;;;;;;;;;;;;16.81;86.18;101336.78;5044699;28;1894;-79
2023/07/20 00:32:11;;;;;;;;;;;;;;;16.77;87.47;101327.59;5045818;28;1490;-79
2023/07/20 00:34:36;;;;;;;;;;;;;;;16.70;89.89;101326.53;5047255;28;1313;-79
2023/07/20 00:37:01;;;;;;;;;;;;;;;16.60;88.63;101336.25;5038599;28;1902;-79
2023/07/20 00:39:27;;;;;;;;;;;;;;;16.51;90.06;101334.53;5043763;28;1221;-80
2023/07/20 00:41:52;;;;;;;;;;;;;;;16.43;87.86;101341.38;5042939;28;1103;-79
2023/07/20 00:44:17;;;;;;;;;;;;;;;16.40;89.14;101339.06;5045387;28;939;-79
2023/07/20 00:46:43;;;;;;;;;;;;;;;16.39;87.94;101334.78;5046745;28;1189;-79
2023/07/20 00:49:09;;;;;;;;;;;;;;;16.39;87.69;101329.53;5050048;28;1430;-79
2023/07/20 00:51:34;;;;;;;;;;;;;;;16.36;88.68;101339.50;5042302;28;1965;-79
2023/07/20 00:54:00;;;;;;;;;;;;;;;16.33;89.34;101334.56;5032002;28;1313;-79
2023/07/20 00:56:25;;;;;;;;;;;;;;;16.29;90.00;101339.28;5046654;28;1036;-79
2023/07/20 00:58:51;;;;;;;;;;;;;;;16.23;88.81;101339.88;5026234;28;1129;-76
2023/07/20 01:01:16;;;;;;;;;;;;;;;16.20;89.36;101338.38;5029758;28;1114;-76
2023/07/20 01:03:41;;;;;;;;;;;;;;;16.18;90.37;101336.91;5044353;28;1486;-76
2023/07/20 01:06:22;;;;;;;;;;;;;;;16.12;89.66;101329.63;5047105;28;1001;-76
2023/07/20 01:08:54;;;;;;;;;;;;;;;16.09;89.63;101332.53;5041521;28;1034;-77
2023/07/20 01:11:26;;;;;;;;;;;;;;;16.05;89.52;101331.19;5044124;28;1895;-77
2023/07/20 01:13:52;;;;;;;;;;;;;;;16.05;90.29;101332.00;5041988;28;1136;-77
2023/07/20 01:16:17;;;;;;;;;;;;;;;16.03;89.22;101338.38;5044790;28;1123;-77
2023/07/20 01:18:42;;;;;;;;;;;;;;;16.00;91.13;101344.72;5047110;28;1248;-76
2023/07/20 01:21:10;;;;;;;;;;;;;;;15.97;90.48;101336.34;5042406;28;1178;-79
2023/07/20 01:24:00;;;;;;;;;;;;;;;15.96;91.53;101342.56;5042546;28;1257;-77
2023/07/20 01:26:31;;;;;;;;;;;;;;;15.88;91.73;101341.47;5044309;28;1758;-77
2023/07/20 01:28:59;;;;;;;;;;;;;;;15.86;90.68;101348.66;5045602;28;1281;-78
2023/07/20 01:31:25;;;;;;;;;;;;;;;15.85;91.96;101347.00;5034100;28;1957;-77
2023/07/20 01:33:54;;;;;;;;;;;;;;;15.80;90.66;101344.00;5043654;28;1236;-76
2023/07/20 01:36:19;;;;;;;;;;;;;;;15.77;90.98;101348.69;5047494;28;1240;-77
2023/07/20 01:38:45;;;;;;;;;;;;;;;15.77;91.39;101349.56;5044203;28;1193;-77
2023/07/20 01:41:11;;;;;;;;;;;;;;;15.74;91.93;101352.44;5040834;28;1256;-77
2023/07/20 01:43:36;;;;;;;;;;;;;;;15.78;90.86;101348.56;5027836;28;1453;-78
2023/07/20 01:46:02;;;;;;;;;;;;;;;15.80;92.96;101344.00;5026277;28;1219;-77
2023/07/20 01:48:27;;;;;;;;;;;;;;;15.77;91.83;101349.56;5047110;28;1170;-77
2023/07/20 01:50:52;;;;;;;;;;;;;;;15.76;91.32;101344.44;5047366;28;1905;-78
2023/07/20 01:53:17;;;;;;;;;;;;;;;15.80;91.60;101343.19;5047660;28;1261;-77
2023/07/20 01:55:43;;;;;;;;;;;;;;;15.82;90.98;101347.28;5048260;28;1030;-77
2023/07/20 01:58:08;;;;;;;;;;;;;;;15.83;91.18;101348.16;5049177;28;1098;-77
2023/07/20 02:00:33;;;;;;;;;;;;;;;15.81;91.18;101345.66;5050871;28;1374;-77
2023/07/20 02:02:59;;;;;;;;;;;;;;;15.79;91.58;101342.38;5047875;28;974;-77
2023/07/20 02:05:24;;;;;;;;;;;;;;;15.78;91.40;101350.38;5050403;28;1076;-78
2023/07/20 02:07:49;;;;;;;;;;;;;;;15.74;91.77;101352.44;5046352;28;1143;-77
2023/07/20 02:10:15;;;;;;;;;;;;;;;15.72;91.98;101349.16;5044910;28;1882;-75
2023/07/20 02:12:40;;;;;;;;;;;;;;;15.69;91.78;101354.66;5045066;28;1312;-77
2023/07/20 02:15:05;;;;;;;;;;;;;;;15.67;91.95;101348.78;5045301;28;1149;-77
2023/07/20 02:17:30;;;;;;;;;;;;;;;15.66;93.01;101347.13;5049243;28;1136;-78
2023/07/20 02:19:57;;;;;;;;;;;;;;;15.62;92.61;101356.19;5044784;28;965;-76
2023/07/20 02:22:22;;;;;;;;;;;;;;;15.60;91.74;101348.50;5038274;28;1119;-77
2023/07/20 02:24:48;;;;;;;;;;;;;;;15.59;92.30;101353.84;5046806;28;1202;-77
2023/07/20 02:27:13;;;;;;;;;;;;;;;15.54;93.58;101358.69;5048984;28;1288;-79
2023/07/20 02:29:40;;;;;;;;;;;;;;;15.47;92.44;101355.00;5047299;28;2004;-76
2023/07/20 02:32:06;;;;;;;;;;;;;;;15.43;92.93;101356.28;5045165;28;1370;-80
2023/07/20 02:34:31;;;;;;;;;;;;;;;15.36;93.10;101356.84;5048255;28;1224;-78
2023/07/20 02:36:57;;;;;;;;;;;;;;;15.29;92.55;101355.75;5048135;28;1093;-79
2023/07/20 02:39:22;;;;;;;;;;;;;;;15.24;92.64;101359.78;5046629;28;1389;-79
2023/07/20 02:41:48;;;;;;;;;;;;;;;15.24;92.31;101365.81;5046252;28;1223;-78
2023/07/20 02:44:13;;;;;;;;;;;;;;;15.20;92.52;101361.88;5047058;28;1627;-78
2023/07/20 02:46:39;;;;;;;;;;;;;;;15.18;92.86;101366.38;5048028;28;1503;-78
2023/07/20 02:49:04;;;;;;;;;;;;;;;15.18;92.37;101369.00;5055552;28;1303;-78
2023/07/20 02:51:29;;;;;;;;;;;;;;;15.20;92.21;101372.31;5048862;28;1996;-78
2023/07/20 02:53:55;;;;;;;;;;;;;;;15.21;92.40;101379.19;5050464;28;1216;-78
2023/07/20 02:56:20;;;;;;;;;;;;;;;15.22;91.77;101386.06;5027520;28;1555;-78
2023/07/20 02:58:48;;;;;;;;;;;;;;;15.21;92.46;101381.78;5049598;28;1260;-78
2023/07/20 03:01:15;;;;;;;;;;;;;;;15.20;93.17;101387.16;5044033;28;1546;-78
2023/07/20 03:03:40;;;;;;;;;;;;;;;15.11;93.19;101384.41;5047778;28;1229;-79
2023/07/20 03:06:06;;;;;;;;;;;;;;;15.07;93.45;101387.44;5032285;28;1516;-79
2023/07/20 03:08:31;;;;;;;;;;;;;;;15.04;93.44;101387.75;5047375;28;1263;-78
2023/07/20 03:10:56;;;;;;;;;;;;;;;15.02;92.71;101394.88;5046894;28;1969;-78
2023/07/20 03:13:21;;;;;;;;;;;;;;;15.01;92.85;101395.84;5046371;28;1200;-78
2023/07/20 03:15:47;;;;;;;;;;;;;;;15.05;92.55;101402.47;5046651;28;1257;-79
2023/07/20 03:18:12;;;;;;;;;;;;;;;15.06;92.56;101406.72;5047841;28;1156;-78
2023/07/20 03:20:38;;;;;;;;;;;;;;;15.04;92.44;101400.81;5048391;28;1093;-78
2023/07/20 03:23:03;;;;;;;;;;;;;;;15.04;93.68;101398.19;5046937;28;1302;-78
2023/07/20 03:25:28;;;;;;;;;;;;;;;15.01;92.83;101401.91;5046222;28;1185;-78
2023/07/20 03:27:53;;;;;;;;;;;;;;;14.99;92.40;101405.63;5041258;28;1273;-78
2023/07/20 03:30:19;;;;;;;;;;;;;;;14.99;92.54;101395.19;5043650;28;1967;-78
2023/07/20 03:32:44;;;;;;;;;;;;;;;14.97;92.25;101397.94;5044716;28;1304;-78
2023/07/20 03:35:09;;;;;;;;;;;;;;;14.94;92.71;101392.16;5046691;28;1229;-76
2023/07/20 03:37:36;;;;;;;;;;;;;;;14.92;92.81;101394.09;5031360;28;1319;-76
2023/07/20 03:40:02;;;;;;;;;;;;;;;14.94;92.92;101402.59;5045591;28;1226;-79
2023/07/20 03:42:27;;;;;;;;;;;;;;;14.95;92.73;101399.84;5044283;28;1636;-79
2023/07/20 03:44:52;;;;;;;;;;;;;;;14.96;92.32;101395.44;5032197;28;1427;-79
2023/07/20 03:47:18;;;;;;;;;;;;;;;14.93;92.93;101400.97;5049210;28;1148;-78
2023/07/20 03:49:43;;;;;;;;;;;;;;;14.94;92.93;101397.38;5050547;28;1938;-79
2023/07/20 03:52:09;;;;;;;;;;;;;;;14.94;92.62;101400.00;5047790;28;1246;-78
2023/07/20 03:54:40;;;;;;;;;;;;;;;14.88;93.05;101399.59;5046198;28;1435;-78
2023/07/20 03:57:05;;;;;;;;;;;;;;;14.91;92.73;101402.88;5045734;28;1036;-79
2023/07/20 03:59:30;;;;;;;;;;;;;;;14.90;92.81;101409.06;5047022;28;986;-78
2023/07/20 04:01:56;;;;;;;;;;;;;;;14.90;92.78;101396.00;5029136;28;1606;-78
2023/07/20 04:04:21;;;;;;;;;;;;;;;14.85;93.08;101402.50;5032525;28;1102;-78
2023/07/20 04:06:46;;;;;;;;;;;;;;;14.84;93.09;101413.06;5038985;28;1454;-79
2023/07/20 04:09:12;;;;;;;;;;;;;;;14.84;93.22;101416.47;5033728;28;1157;-79
2023/07/20 04:11:37;;;;;;;;;;;;;;;14.84;93.02;101413.88;5049827;28;1969;-79
2023/07/20 04:14:02;;;;;;;;;;;;;;;14.84;92.98;101419.09;5042494;28;1060;-79
2023/07/20 04:16:27;;;;;;;;;;;;;;;14.83;92.91;101417.44;5042895;28;1134;-79
2023/07/20 04:18:55;;;;;;;;;;;;;;;14.81;93.32;101414.16;5030349;28;1239;-79
2023/07/20 04:21:20;;;;;;;;;;;;;;;14.81;93.07;101419.38;5039326;28;1227;-79
2023/07/20 04:23:45;;;;;;;;;;;;;;;14.81;93.65;101423.78;5042171;28;1230;-79
2023/07/20 04:26:12;;;;;;;;;;;;;;;14.76;93.42;101418.97;5044936;28;1315;-79
2023/07/20 04:28:38;;;;;;;;;;;;;;;14.72;93.65;101425.44;5044060;28;1479;-77
2023/07/20 04:31:10;;;;;;;;;;;;;;;14.73;93.46;101427.06;5038572;28;1894;-77
2023/07/20 04:33:35;;;;;;;;;;;;;;;14.73;93.66;101424.47;5040529;28;1214;-76
2023/07/20 04:36:00;;;;;;;;;;;;;;;14.74;93.68;101431.34;5044321;28;1351;-76
2023/07/20 04:38:26;;;;;;;;;;;;;;;14.75;93.96;101434.78;5031782;28;1214;-77
2023/07/20 04:40:51;;;;;;;;;;;;;;;14.73;93.72;101432.28;5045279;28;1354;-77
2023/07/20 04:43:17;;;;;;;;;;;;;;;14.74;93.72;101430.53;5033048;28;1263;-76
2023/07/20 04:45:42;;;;;;;;;;;;;;;14.77;94.03;101433.69;5047873;28;1317;-77
2023/07/20 04:48:11;;;;;;;;;;;;;;;14.73;94.09;101432.28;5049698;28;1264;-77
2023/07/20 04:50:37;;;;;;;;;;;;;;;14.71;94.50;101431.63;5044622;28;1898;-77
2023/07/20 04:53:02;;;;;;;;;;;;;;;14.68;94.42;101442.34;5047853;28;1235;-76
2023/07/20 04:55:27;;;;;;;;;;;;;;;14.68;94.49;101434.53;5048829;28;1452;-76
2023/07/20 04:57:53;;;;;;;;;;;;;;;14.65;94.57;101432.16;5030178;28;1260;-78
2023/07/20 05:00:19;;;;;;;;;;;;;;;14.59;95.82;101430.09;5044551;28;1086;-77
2023/07/20 05:02:44;;;;;;;;;;;;;;;14.53;96.44;101426.25;5043039;28;1236;-79
2023/07/20 05:05:09;;;;;;;;;;;;;;;14.54;96.27;101442.72;5043321;28;1225;-77
2023/07/20 05:07:34;;;;;;;;;;;;;;;14.51;96.39;101435.19;5044471;28;1312;-76
2023/07/20 05:10:00;;;;;;;;;;;;;;;14.49;96.47;101439.69;5045480;28;1901;-78
2023/07/20 05:12:25;;;;;;;;;;;;;;;14.48;96.75;101432.84;5023701;28;1297;-78
2023/07/20 05:14:51;;;;;;;;;;;;;;;14.49;96.43;101440.53;5045856;28;1524;-77
2023/07/20 05:17:16;;;;;;;;;;;;;;;14.46;98.07;101434.75;5041739;28;1163;-78
2023/07/20 05:19:41;;;;;;;;;;;;;;;14.42;97.06;101433.34;5045199;28;1534;-77
2023/07/20 05:22:06;;;;;;;;;;;;;;;14.45;96.53;101435.66;5043268;28;1173;-77
2023/07/20 05:24:31;;;;;;;;;;;;;;;14.43;98.31;101441.03;5043846;28;1130;-77
2023/07/20 05:26:58;;;;;;;;;;;;;;;14.45;97.99;101438.28;5040264;28;1273;-77
2023/07/20 05:29:23;;;;;;;;;;;;;;;14.44;98.12;101434.84;5039499;28;1217;-77
2023/07/20 05:31:48;;;;;;;;;;;;;;;14.48;97.67;101438.06;5025912;28;1957;-78
2023/07/20 05:34:14;;;;;;;;;;;;;;;14.51;97.00;101430.78;5042817;28;1278;-78
2023/07/20 05:36:39;;;;;;;;;;;;;;;14.55;97.57;101439.16;5046754;28;1184;-79
2023/07/20 05:39:04;;;;;;;;;;;;;;;14.56;97.86;101432.97;5046157;28;1296;-77
2023/07/20 05:41:29;;;;;;;;;;;;;;;14.56;99.88;101440.81;5035249;28;1582;-78
2023/07/20 05:43:55;;;;;;;;;;;;;;;14.57;99.18;101442.47;5031743;28;1292;-78
2023/07/20 05:46:20;;;;;;;;;;;;;;;14.59;97.82;101451.00;5051265;28;1181;-77
2023/07/20 05:48:45;;;;;;;;;;;;;;;14.59;98.62;101440.53;5047934;28;1362;-78
2023/07/20 05:51:11;;;;;;;;;;;;;;;14.63;99.55;101444.53;5041832;28;1897;-78
2023/07/20 05:53:36;;;;;;;;;;;;;;;14.62;99.29;101450.69;5045156;28;1208;-77
2023/07/20 05:56:02;;;;;;;;;;;;;;;14.63;98.67;101452.38;5038448;28;1292;-78
2023/07/20 05:58:28;;;;;;;;;;;;;;;14.68;98.51;101455.41;5045571;28;1118;-77
2023/07/20 06:00:53;;;;;;;;;;;;;;;14.76;98.80;101457.31;5043490;28;1240;-78
2023/07/20 06:03:18;;;;;;;;;;;;;;;14.82;97.82;101457.59;5042459;28;979;-78
2023/07/20 06:05:44;;;;;;;;;;;;;;;14.92;98.11;101459.41;5021477;28;1224;-78
2023/07/20 06:08:09;;;;;;;;;;;;;;;14.96;98.36;101463.34;5043806;28;1075;-77
2023/07/20 06:10:34;;;;;;;;;;;;;;;15.04;97.37;101471.34;5043102;28;1983;-78
2023/07/20 06:12:59;;;;;;;;;;;;;;;15.07;98.33;101465.84;5047392;28;1036;-77
2023/07/20 06:15:29;;;;;;;;;;;;;;;15.12;97.40;101468.84;5038892;28;1090;-78
2023/07/20 06:17:55;;;;;;;;;;;;;;;15.21;97.17;101478.47;5034601;28;1499;-78
2023/07/20 06:20:21;;;;;;;;;;;;;;;15.21;97.01;101483.72;5047296;28;1172;-78
2023/07/20 06:22:46;;;;;;;;;;;;;;;15.27;97.26;101471.88;5032094;28;1370;-78
2023/07/20 06:25:12;;;;;;;;;;;;;;;15.28;97.09;101479.56;5039320;28;1384;-78
2023/07/20 06:27:37;;;;;;;;;;;;;;;15.32;96.43;101478.34;5029793;28;1381;-78
2023/07/20 06:30:02;;;;;;;;;;;;;;;15.33;96.33;101493.03;5040831;28;1918;-78
2023/07/20 06:32:27;;;;;;;;;;;;;;;15.37;95.85;101481.34;5043152;28;1278;-77
2023/07/20 06:34:52;;;;;;;;;;;;;;;15.43;97.02;101481.75;5043647;28;1310;-78
2023/07/20 06:37:19;;;;;;;;;;;;;;;15.50;96.55;101488.06;5040904;28;1159;-78
2023/07/20 06:39:45;;;;;;;;;;;;;;;15.56;96.43;101479.66;5050639;28;1217;-78
2023/07/20 06:42:10;;;;;;;;;;;;;;;15.64;96.23;101482.41;5045930;28;1261;-78
2023/07/20 06:44:36;;;;;;;;;;;;;;;15.68;96.01;101475.94;5032807;28;1196;-78
2023/07/20 06:47:01;;;;;;;;;;;;;;;15.75;95.91;101482.25;5056994;28;1562;-78
2023/07/20 06:49:27;;;;;;;;;;;;;;;15.79;95.04;101482.78;5047825;28;1534;-78
2023/07/20 06:51:52;;;;;;;;;;;;;;;15.81;93.10;101473.81;5032009;28;1893;-78
2023/07/20 06:54:17;;;;;;;;;;;;;;;15.83;93.07;101474.53;5029416;28;1192;-78
2023/07/20 06:56:42;;;;;;;;;;;;;;;15.91;92.45;101472.00;5050230;28;1113;-78
2023/07/20 06:59:08;;;;;;;;;;;;;;;15.98;91.94;101476.66;5037091;28;1282;-79
2023/07/20 07:01:33;;;;;;;;;;;;;;;16.05;92.56;101472.47;5046137;28;1178;-77
2023/07/20 07:03:58;;;;;;;;;;;;;;;16.14;91.95;101472.44;5046514;28;1166;-78
2023/07/20 07:06:23;;;;;;;;;;;;;;;16.21;91.87;101477.91;5042733;28;1368;-78
2023/07/20 07:08:49;;;;;;;;;;;;;;;16.23;90.10;101470.75;5048282;28;1109;-78
2023/07/20 07:11:14;;;;;;;;;;;;;;;16.31;90.56;101478.69;5045000;28;1898;-78
2023/07/20 07:13:39;;;;;;;;;;;;;;;16.34;89.32;101478.38;5046784;28;1526;-78
2023/07/20 07:16:04;;;;;;;;;;;;;;;16.38;89.39;101484.97;5044800;28;1302;-78
2023/07/20 07:18:29;;;;;;;;;;;;;;;16.44;90.09;101487.00;5034227;28;1225;-78
2023/07/20 07:20:55;;;;;;;;;;;;;;;16.46;88.88;101485.09;5043959;28;1105;-78
2023/07/20 07:23:20;;;;;;;;;;;;;;;16.45;89.17;101479.97;5043223;28;1519;-78
2023/07/20 07:25:46;;;;;;;;;;;;;;;16.55;89.25;101485.16;5045769;28;1406;-78
2023/07/20 07:28:11;;;;;;;;;;;;;;;16.56;88.29;101486.81;5048696;28;1269;-78
2023/07/20 07:30:37;;;;;;;;;;;;;;;16.63;87.43;101482.59;5046481;28;1909;-78
2023/07/20 07:33:02;;;;;;;;;;;;;;;16.72;87.31;101489.63;5029407;28;1223;-78
2023/07/20 07:35:27;;;;;;;;;;;;;;;16.79;87.44;101493.28;5046179;28;1232;-78
2023/07/20 07:37:52;;;;;;;;;;;;;;;16.77;86.59;101495.25;5049545;28;1127;-78
2023/07/20 07:40:18;;;;;;;;;;;;;;;16.76;86.56;101496.22;5047966;28;1164;-78
2023/07/20 07:42:44;;;;;;;;;;;;;;;16.76;86.61;101488.34;5045624;28;1153;-78
2023/07/20 07:45:09;;;;;;;;;;;;;;;16.82;86.80;101498.25;5047513;28;1272;-78
2023/07/20 07:47:34;;;;;;;;;;;;;;;16.79;86.16;101495.09;5046454;28;1292;-78
2023/07/20 07:49:59;;;;;;;;;;;;;;;16.81;86.22;101486.13;5044693;28;1914;-78
2023/07/20 07:52:24;;;;;;;;;;;;;;;16.83;86.12;101493.81;5042788;28;1322;-78
2023/07/20 07:54:50;;;;;;;;;;;;;;;16.88;86.04;101500.25;5046433;28;1190;-78
2023/07/20 07:57:15;;;;;;;;;;;;;;;16.95;85.17;101492.63;5046049;28;1232;-78
2023/07/20 07:59:40;;;;;;;;;;;;;;;17.05;84.96;101503.03;5043995;28;1331;-78
2023/07/20 08:02:05;;;;;;;;;;;;;;;17.12;85.12;101501.44;5048054;28;1155;-78
2023/07/20 08:04:31;;;;;;;;;;;;;;;17.15;81.14;101504.59;5046548;28;1140;-78
2023/07/20 08:06:56;;;;;;;;;;;;;;;17.23;82.93;101506.44;5048757;28;1097;-76
2023/07/20 08:09:22;;;;;;;;;;;;;;;17.32;82.77;101505.56;5032127;28;1397;-76
2023/07/20 08:11:48;;;;;;;;;;;;;;;17.47;83.60;101511.88;5041489;28;1944;-77
2023/07/20 08:14:13;;;;;;;;;;;;;;;17.59;82.22;101511.63;5045095;28;1074;-77
2023/07/20 08:16:38;;;;;;;;;;;;;;;17.70;82.68;101508.75;5045885;28;1081;-77
2023/07/20 08:19:04;;;;;;;;;;;;;;;17.81;80.91;101508.50;5041201;28;1077;-76
2023/07/20 08:21:29;;;;;;;;;;;;;;;17.87;80.65;101512.31;5048095;28;989;-77
2023/07/20 08:23:54;;;;;;;;;;;;;;;17.94;80.39;101510.69;5046458;28;1257;-77
2023/07/20 08:26:22;;;;;;;;;;;;;;;18.03;77.55;101515.84;5047717;28;1170;-77
2023/07/20 08:28:48;;;;;;;;;;;;;;;18.09;74.66;101519.66;5044653;28;1466;-76
2023/07/20 08:31:13;;;;;;;;;;;;;;;18.15;79.22;101519.00;5020668;28;1944;-76
2023/07/20 08:33:38;;;;;;;;;;;;;;;18.24;76.48;101522.50;5043272;28;1392;-77
2023/07/20 08:36:05;;;;;;;;;;;;;;;18.29;74.04;101514.94;5046781;28;1213;-77
2023/07/20 08:38:31;;;;;;;;;;;;;;;18.32;74.68;101514.66;5045813;28;1302;-78
2023/07/20 08:40:56;;;;;;;;;;;;;;;18.37;77.29;101520.25;5042558;28;1388;-76
2023/07/20 08:43:23;;;;;;;;;;;;;;;18.50;76.85;101523.25;5043497;28;1128;-77
2023/07/20 08:45:49;;;;;;;;;;;;;;;18.41;76.78;101513.72;5047155;28;1109;-78
2023/07/20 08:48:15;;;;;;;;;;;;;;;18.44;76.29;101516.00;5044591;28;1340;-78
2023/07/20 08:50:41;;;;;;;;;;;;;;;18.44;76.20;101516.00;5041286;28;1989;-77
2023/07/20 08:53:06;;;;;;;;;;;;;;;18.46;76.11;101516.66;5045696;28;1085;-77
2023/07/20 08:55:32;;;;;;;;;;;;;;;18.57;75.06;101524.22;5045398;28;1399;-77
2023/07/20 08:57:58;;;;;;;;;;;;;;;18.73;75.08;101514.78;5030507;28;1354;-77
2023/07/20 09:00:24;;;;;;;;;;;;;;;18.95;74.70;101511.53;5046438;28;1197;-77
2023/07/20 09:02:51;;;;;;;;;;;;;;;19.13;74.31;101514.00;5044567;28;1145;-76
2023/07/20 09:05:16;;;;;;;;;;;;;;;19.25;74.02;101511.88;5032699;28;1199;-79
2023/07/20 09:07:41;;;;;;;;;;;;;;;19.29;73.33;101513.19;5044822;28;1330;-77
2023/07/20 09:10:07;;;;;;;;;;;;;;;19.28;73.02;101516.81;5028445;28;1961;-78
2023/07/20 09:12:36;;;;;;;;;;;;;;;19.20;72.89;101519.41;5044481;28;1283;-77
2023/07/20 09:15:01;;;;;;;;;;;;;;;19.15;72.47;101511.19;5045411;28;1290;-76
2023/07/20 09:17:27;;;;;;;;;;;;;;;19.14;72.87;101514.81;5042731;28;1344;-77
2023/07/20 09:19:52;;;;;;;;;;;;;;;19.08;71.95;101522.38;5028406;28;1576;-76
2023/07/20 09:22:17;;;;;;;;;;;;;;;19.10;72.28;101524.88;5045476;28;1268;-76
2023/07/20 09:24:43;;;;;;;;;;;;;;;19.10;71.95;101520.44;5045592;28;1282;-76
2023/07/20 09:27:09;;;;;;;;;;;;;;;19.13;69.19;101519.25;5045631;28;1228;-77
2023/07/20 09:29:35;;;;;;;;;;;;;;;19.15;70.36;101511.19;5030434;28;1413;-77
2023/07/20 09:32:03;;;;;;;;;;;;;;;19.31;69.46;101511.19;5031647;28;1926;-77
2023/07/20 09:34:32;;;;;;;;;;;;;;;19.44;70.04;101511.53;5024604;28;1215;-77
2023/07/20 09:36:58;;;;;;;;;;;;;;;19.34;65.64;101508.25;5041927;28;1183;-77
2023/07/20 09:39:23;;;;;;;;;;;;;;;19.26;67.39;101508.25;5043919;28;1317;-76
2023/07/20 09:41:48;;;;;;;;;;;;;;;19.14;67.71;101504.31;5039852;28;1281;-78
2023/07/20 09:44:14;;;;;;;;;;;;;;;19.08;67.54;101509.22;5043258;28;1209;-77
2023/07/20 09:46:49;;;;;;;;;;;;;;;19.02;65.81;101509.88;5045008;28;1253;-76
2023/07/20 09:49:14;;;;;;;;;;;;;;;18.95;65.86;101508.91;5039734;28;1300;-77
2023/07/20 09:51:39;;;;;;;;;;;;;;;18.91;66.87;101515.47;5046503;28;1906;-77
2023/07/20 09:54:05;;;;;;;;;;;;;;;18.92;67.51;101503.97;5041884;28;1463;-78
2023/07/20 09:56:30;;;;;;;;;;;;;;;19.00;67.90;101509.25;5037934;28;1515;-78
2023/07/20 09:58:56;;;;;;;;;;;;;;;19.03;67.65;101503.63;5027894;28;1484;-78
2023/07/20 10:01:22;;;;;;;;;;;;;;;19.05;67.74;101506.13;5040997;28;1467;-78
2023/07/20 10:03:51;;;;;;;;;;;;;;;19.02;65.64;101507.25;5041453;28;907;-78
2023/07/20 10:06:20;;;;;;;;;;;;;;;19.00;66.60;101498.72;5043189;28;1480;-77
2023/07/20 10:08:47;;;;;;;;;;;;;;;19.01;66.41;101510.88;5028109;28;1229;-78
2023/07/20 10:11:15;;;;;;;;;;;;;;;19.03;66.26;101511.53;5026926;28;1926;-77
2023/07/20 10:13:40;;;;;;;;;;;;;;;19.05;66.14;101506.94;5041154;28;1321;-77
2023/07/20 10:16:10;;;;;;;;;;;;;;;19.03;65.24;101497.56;5039504;28;1287;-77
2023/07/20 10:18:45;;;;;;;;;;;;;;;18.93;66.13;101503.00;5054348;28;1213;-78
2023/07/20 10:21:10;;;;;;;;;;;;;;;19.00;65.80;101506.59;5053107;28;1257;-78
2023/07/20 10:23:35;;;;;;;;;;;;;;;18.98;66.45;101503.34;5051797;28;1345;-77
2023/07/20 10:26:01;;;;;;;;;;;;;;;19.13;66.24;101502.66;5046120;28;1168;-78
2023/07/20 10:28:27;;;;;;;;;;;;;;;19.28;66.48;101487.88;5046615;28;1208;-78
2023/07/20 10:30:52;;;;;;;;;;;;;;;19.46;66.56;101491.13;5046216;28;1970;-78
2023/07/20 10:33:19;;;;;;;;;;;;;;;19.73;65.57;101495.22;5044383;28;1213;-78
2023/07/20 10:35:57;;;;;;;;;;;;;;;19.73;64.82;101489.16;5046071;28;1209;-78
2023/07/20 10:38:38;;;;;;;;;;;;;;;19.74;65.12;101491.59;5050194;28;1504;-78
2023/07/20 10:41:03;;;;;;;;;;;;;;;19.94;64.72;101497.28;5027459;28;1461;-78
2023/07/20 10:43:28;;;;;;;;;;;;;;;20.04;64.35;101492.63;5047673;28;1205;-77
2023/07/20 10:45:53;;;;;;;;;;;;;;;20.09;63.92;101489.50;5050879;28;1229;-78
2023/07/20 10:48:20;;;;;;;;;;;;;;;20.16;61.83;101491.25;5033981;28;1429;-78
2023/07/20 10:51:05;;;;;;;;;;;;;;;20.23;62.06;101485.31;5050178;28;1902;-78
2023/07/20 10:53:30;;;;;;;;;;;;;;;20.19;62.56;101484.84;5046645;28;1204;-78
2023/07/20 10:56:15;;;;;;;;;;;;;;;20.21;60.93;101482.03;5045482;28;993;-78
2023/07/20 10:58:41;;;;;;;;;;;;;;;20.27;61.03;101481.34;5045629;28;1140;-78
2023/07/20 11:01:06;;;;;;;;;;;;;;;20.45;61.39;101474.00;5046099;28;1589;-78
2023/07/20 11:03:38;;;;;;;;;;;;;;;20.58;61.66;101476.91;5048237;28;1638;-78
2023/07/20 11:06:38;;;;;;;;;;;;;;;20.76;60.31;101476.63;5033175;28;1407;-78
2023/07/20 11:09:06;;;;;;;;;;;;;;;20.75;58.91;101474.16;5000740;28;1442;-78
2023/07/20 11:11:33;;;;;;;;;;;;;;;20.72;58.40;101469.25;5048918;28;1886;-78
2023/07/20 11:13:59;;;;;;;;;;;;;;;20.67;59.41;101473.22;5044475;28;1214;-77
2023/07/20 11:16:43;;;;;;;;;;;;;;;20.89;59.20;101470.75;5046243;28;1160;-78
2023/07/20 11:19:16;;;;;;;;;;;;;;;21.11;60.44;101466.47;5045457;28;1551;-78
2023/07/20 11:21:42;;;;;;;;;;;;;;;21.14;57.00;101469.53;5045302;28;1057;-78
2023/07/20 11:24:09;;;;;;;;;;;;;;;21.11;58.52;101458.56;5045281;28;1240;-77
2023/07/20 11:26:44;;;;;;;;;;;;;;;21.17;54.51;101463.94;5046031;28;1210;-78
2023/07/20 11:29:09;;;;;;;;;;;;;;;21.23;57.33;101451.84;5049317;28;1447;-77
2023/07/20 11:31:35;;;;;;;;;;;;;;;21.43;57.88;101457.44;5043093;28;1897;-77
2023/07/20 11:34:00;;;;;;;;;;;;;;;21.70;56.87;101458.63;5042335;28;1393;-77
2023/07/20 11:36:25;;;;;;;;;;;;;;;21.81;53.16;101460.81;5045503;28;1193;-78
2023/07/20 11:38:51;;;;;;;;;;;;;;;21.74;54.88;101450.16;5047547;28;1206;-78
2023/07/20 11:41:16;;;;;;;;;;;;;;;21.77;56.42;101442.88;5051692;28;1503;-76
2023/07/20 11:43:42;;;;;;;;;;;;;;;21.93;56.21;101453.22;5046764;28;1358;-77
2023/07/20 11:46:07;;;;;;;;;;;;;;;22.03;56.07;101443.19;5051339;28;1209;-77
2023/07/20 11:48:32;;;;;;;;;;;;;;;22.06;54.05;101442.81;5047179;28;1523;-77
2023/07/20 11:50:57;;;;;;;;;;;;;;;22.15;54.99;101436.47;5046291;28;2168;-77
2023/07/20 11:53:24;;;;;;;;;;;;;;;22.33;54.60;101443.97;5045965;28;1324;-78
2023/07/20 11:55:49;;;;;;;;;;;;;;;22.35;53.08;101441.13;5042690;28;1000;-78
2023/07/20 11:58:16;;;;;;;;;;;;;;;22.30;53.98;101440.88;5030454;28;1216;-78
2023/07/20 12:00:43;;;;;;;;;;;;;;;22.23;53.12;101438.97;5045226;28;1196;-77
2023/07/20 12:03:10;;;;;;;;;;;;;;;22.11;53.29;101440.47;5046105;28;1244;-77
2023/07/20 12:05:35;;;;;;;;;;;;;;;22.13;54.01;101435.81;5045990;28;1160;-77
2023/07/20 12:08:01;;;;;;;;;;;;;;;22.23;53.31;101438.97;5045075;28;1326;-77
2023/07/20 12:10:28;;;;;;;;;;;;;;;22.31;53.41;101439.84;5042740;28;2260;-77
2023/07/20 12:12:53;;;;;;;;;;;;;;;22.31;51.18;101442.50;5046904;28;1099;-77
2023/07/20 12:15:21;;;;;;;;;;;;;;;22.25;52.46;101431.69;5047071;28;1141;-77
2023/07/20 12:17:49;;;;;;;;;;;;;;;22.47;52.55;101439.63;5028927;28;1473;-77
2023/07/20 12:20:37;;;;;;;;;;;;;;;22.56;51.59;101427.94;5036097;28;1395;-77
2023/07/20 12:23:07;;;;;;;;;;;;;;;22.72;51.86;101432.97;5048433;28;1206;-78
2023/07/20 12:25:33;;;;;;;;;;;;;;;22.82;51.97;101431.78;5044291;28;1204;-77
2023/07/20 12:28:00;;;;;;;;;;;;;;;22.89;51.44;101427.44;5042519;28;1305;-77
2023/07/20 12:30:25;;;;;;;;;;;;;;;22.84;47.14;101421.88;5044702;28;1894;-77
2023/07/20 12:32:52;;;;;;;;;;;;;;;22.62;49.08;101424.53;5042860;28;1195;-77
2023/07/20 12:35:17;;;;;;;;;;;;;;;22.46;47.02;101427.41;5045411;28;1305;-78
2023/07/20 12:37:42;;;;;;;;;;;;;;;22.31;49.82;101418.72;5042995;28;1351;-77
2023/07/20 12:40:10;;;;;;;;;;;;;;;22.32;50.59;101420.38;5044455;28;1284;-78
2023/07/20 12:42:35;;;;;;;;;;;;;;;22.38;49.59;101419.63;5045378;28;1325;-78